地図

経路データ

SID SEASON NUMBER BASIN SUBBASIN NAME ISO_TIME NATURE LAT LON WMO_WIND WMO_PRES WMO_AGENCY TRACK_TYPE DIST2LAND LANDFALL IFLAG USA_AGENCY USA_ATCF_ID USA_LAT USA_LON USA_RECORD USA_STATUS USA_WIND USA_PRES USA_SSHS USA_R34_NE USA_R34_SE USA_R34_SW USA_R34_NW USA_R50_NE USA_R50_SE USA_R50_SW USA_R50_NW USA_R64_NE USA_R64_SE USA_R64_SW USA_R64_NW USA_POCI USA_ROCI USA_RMW USA_EYE TOKYO_LAT TOKYO_LON TOKYO_GRADE TOKYO_WIND TOKYO_PRES TOKYO_R50_DIR TOKYO_R50_LONG TOKYO_R50_SHORT TOKYO_R30_DIR TOKYO_R30_LONG TOKYO_R30_SHORT TOKYO_LAND CMA_LAT CMA_LON CMA_CAT CMA_WIND CMA_PRES HKO_LAT HKO_LON HKO_CAT HKO_WIND HKO_PRES NEWDELHI_LAT NEWDELHI_LON NEWDELHI_GRADE NEWDELHI_WIND NEWDELHI_PRES NEWDELHI_CI NEWDELHI_DP NEWDELHI_POCI REUNION_LAT REUNION_LON REUNION_TYPE REUNION_WIND REUNION_PRES REUNION_TNUM REUNION_CI REUNION_RMW REUNION_R34_NE REUNION_R34_SE REUNION_R34_SW REUNION_R34_NW REUNION_R50_NE REUNION_R50_SE REUNION_R50_SW REUNION_R50_NW REUNION_R64_NE REUNION_R64_SE REUNION_R64_SW REUNION_R64_NW BOM_LAT BOM_LON BOM_TYPE BOM_WIND BOM_PRES BOM_TNUM BOM_CI BOM_RMW BOM_R34_NE BOM_R34_SE BOM_R34_SW BOM_R34_NW BOM_R50_NE BOM_R50_SE BOM_R50_SW BOM_R50_NW BOM_R64_NE BOM_R64_SE BOM_R64_SW BOM_R64_NW BOM_ROCI BOM_POCI BOM_EYE BOM_POS_METHOD BOM_PRES_METHOD NADI_LAT NADI_LON NADI_CAT NADI_WIND NADI_PRES WELLINGTON_LAT WELLINGTON_LON WELLINGTON_WIND WELLINGTON_PRES DS824_LAT DS824_LON DS824_STAGE DS824_WIND DS824_PRES TD9636_LAT TD9636_LON TD9636_STAGE TD9636_WIND TD9636_PRES TD9635_LAT TD9635_LON TD9635_WIND TD9635_PRES TD9635_ROCI NEUMANN_LAT NEUMANN_LON NEUMANN_CLASS NEUMANN_WIND NEUMANN_PRES MLC_LAT MLC_LON MLC_CLASS MLC_WIND MLC_PRES USA_GUST BOM_GUST BOM_GUST_PER REUNION_GUST REUNION_GUST_PER USA_SEAHGT USA_SEARAD_NE USA_SEARAD_SE USA_SEARAD_SW USA_SEARAD_NW STORM_SPEED STORM_DIR
1914195N18146 1914 20 WP MM NOT_NAMED 1914-07-14 10:00:00 NR 17.5000 145.500 main 2020 2003 __________O___ -1 17.5000 145.500 2 10 277
1914195N18146 1914 20 WP MM NOT_NAMED 1914-07-14 12:00:00 NR 17.5427 145.142 main 2003 1971 __________P___ -1 17.5427 145.142 2 11 277
1914195N18146 1914 20 WP MM NOT_NAMED 1914-07-14 15:00:00 NR 17.6090 144.589 main 1971 1934 __________P___ -1 17.6090 144.589 2 11 277
1914195N18146 1914 20 WP MM NOT_NAMED 1914-07-14 18:00:00 NR 17.6825 143.996 main 1934 1896 __________P___ -1 17.6825 143.996 2 12 278
1914195N18146 1914 20 WP MM NOT_NAMED 1914-07-14 21:00:00 NR 17.7680 143.338 main 1896 1888 __________P___ -1 17.7680 143.338 2 13 278
1914195N18146 1914 20 WP MM NOT_NAMED 1914-07-14 22:00:00 NR 17.8000 143.100 main 1888 1859 __________O___ -1 17.8000 143.100 2 14 278
1914195N18146 1914 20 WP MM NOT_NAMED 1914-07-15 00:00:00 NR 17.8692 142.594 main 1859 1821 __________P___ -1 17.8692 142.594 2 15 278
1914195N18146 1914 20 WP MM NOT_NAMED 1914-07-15 03:00:00 NR 17.9793 141.777 main 1821 1766 __________P___ -1 17.9793 141.777 2 16 278
1914195N18146 1914 20 WP MM NOT_NAMED 1914-07-15 06:00:00 NR 18.0855 140.926 main 1766 1704 __________P___ -1 18.0855 140.926 2 16 277
1914195N18146 1914 20 WP MM NOT_NAMED 1914-07-15 09:00:00 NR 18.1756 140.076 main 1704 1674 __________P___ -1 18.1756 140.076 2 16 276
1914195N18146 1914 20 WP MM NOT_NAMED 1914-07-15 10:00:00 NR 18.2000 139.800 main 1674 1625 __________O___ -1 18.2000 139.800 3 15 275
1914195N18146 1914 20 WP MM NOT_NAMED 1914-07-15 12:00:00 NR 18.2381 139.283 main 1625 1552 __________P___ -1 18.2381 139.283 3 15 274
1914195N18146 1914 20 WP MM NOT_NAMED 1914-07-15 15:00:00 NR 18.2771 138.526 main 1552 1485 __________P___ -1 18.2771 138.526 3 14 272
1914195N18146 1914 20 WP MM NOT_NAMED 1914-07-15 18:00:00 NR 18.2973 137.784 main 1485 1409 __________P___ -1 18.2973 137.784 3 14 271
1914195N18146 1914 20 WP MM NOT_NAMED 1914-07-15 21:00:00 NR 18.3016 137.046 main 1409 1391 __________P___ -1 18.3016 137.046 3 14 270
1914195N18146 1914 20 WP MM NOT_NAMED 1914-07-15 22:00:00 NR 18.3000 136.800 main 1391 1344 __________O___ -1 18.3000 136.800 4 14 270
1914195N18146 1914 20 WP MM NOT_NAMED 1914-07-16 00:00:00 NR 18.2997 136.287 main 1344 1271 __________P___ -1 18.2997 136.287 4 15 269
1914195N18146 1914 20 WP MM NOT_NAMED 1914-07-16 03:00:00 NR 18.2871 135.517 main 1271 1208 __________P___ -1 18.2871 135.517 4 15 268
1914195N18146 1914 20 WP MM NOT_NAMED 1914-07-16 06:00:00 NR 18.2597 134.761 main 1208 1132 __________P___ -1 18.2597 134.761 4 14 267
1914195N18146 1914 20 WP MM NOT_NAMED 1914-07-16 09:00:00 NR 18.2174 134.033 main 1132 1113 __________P___ -1 18.2174 134.033 4 14 266
1914195N18146 1914 20 WP MM NOT_NAMED 1914-07-16 10:00:00 NR 18.2000 133.800 main 1113 1065 __________O___ -1 18.2000 133.800 4 13 265
1914195N18146 1914 20 WP MM NOT_NAMED 1914-07-16 12:00:00 NR 18.1554 133.349 main 1065 1004 __________P___ -1 18.1554 133.349 4 13 263
1914195N18146 1914 20 WP MM NOT_NAMED 1914-07-16 15:00:00 NR 18.0764 132.705 main 1004 942 __________P___ -1 18.0764 132.705 4 12 262
1914195N18146 1914 20 WP MM NOT_NAMED 1914-07-16 18:00:00 NR 17.9940 132.090 main 942 881 __________P___ -1 17.9940 132.090 4 12 262
1914195N18146 1914 20 WP MM NOT_NAMED 1914-07-16 21:00:00 NR 17.9204 131.495 main 881 863 __________P___ -1 17.9204 131.495 4 11 263
1914195N18146 1914 20 WP MM NOT_NAMED 1914-07-16 22:00:00 NR 17.9000 131.300 main 863 826 __________O___ -1 17.9000 131.300 4 12 263
1914195N18146 1914 20 WP MM NOT_NAMED 1914-07-17 00:00:00 NR 17.8507 130.889 main 826 767 __________P___ -1 17.8507 130.889 4 12 263
1914195N18146 1914 20 WP MM NOT_NAMED 1914-07-17 03:00:00 NR 17.7892 130.286 main 767 715 __________P___ -1 17.7892 130.286 4 11 265
1914195N18146 1914 20 WP MM NOT_NAMED 1914-07-17 06:00:00 NR 17.7591 129.708 main 715 673 __________P___ -1 17.7591 129.708 4 11 269
1914195N18146 1914 20 WP MM NOT_NAMED 1914-07-17 09:00:00 NR 17.7790 129.169 main 673 657 __________P___ -1 17.7790 129.169 4 10 273
1914195N18146 1914 20 WP MM NOT_NAMED 1914-07-17 10:00:00 NR 17.8000 129.000 main 657 641 __________O___ -1 17.8000 129.000 2 9 281
1914195N18146 1914 20 WP MM NOT_NAMED 1914-07-17 12:00:00 NR 17.8658 128.680 main 641 611 __________P___ -1 17.8658 128.680 2 9 286
1914195N18146 1914 20 WP MM NOT_NAMED 1914-07-17 15:00:00 NR 18.0149 128.236 main 611 577 __________P___ -1 18.0149 128.236 2 9 293
1914195N18146 1914 20 WP MM NOT_NAMED 1914-07-17 18:00:00 NR 18.2078 127.824 main 577 538 __________P___ -1 18.2078 127.824 2 9 298
1914195N18146 1914 20 WP MM NOT_NAMED 1914-07-17 21:00:00 NR 18.4253 127.430 main 538 527 __________P___ -1 18.4253 127.430 2 9 300
1914195N18146 1914 20 WP MM NOT_NAMED 1914-07-17 22:00:00 NR 18.5000 127.300 main 527 __________O___ -1 18.5000 127.300 2 9 300

デジタル台風データ・検索

IBTrACS Databaseについて

本データベースは、米国NOAAが公開する1842年以降の世界の熱帯低気圧のベストトラックデータアーカイブInternational Best Track Archive for Climate Stewardship (IBTrACS)を、ウェブで閲覧しやすい形式に変換したものです。

最終更新日:2021-11-26